Wellington, FL

8:19 AM EST on January 27, 2015 (GMT -0500)
Greenview Shores/Amesbury | Change Station
CLOSE
Current Station
Personal Weather Station
Location: WELLINGTON, FL
Elevation: 14 ft
Nearby Weather Stations

Elev 14 ft 26.65 °N, 80.25 °W | Updated 12 seconds ago

Clear
Clear
54.5 °F
Feels Like 54.5 °F
N
5.4
Wind Variable Wind from South
Gusts 9.2 mph

Today
High -- | Low -- °F
--% Chance of Precip.
Yesterday
High -- | Low -- °F
Precip. -- in
7:08 AM 5:59 PM
First Quarter, 54% visible
Pressure 30.03 in
Visibility 10.0 miles
Clouds Few 3000 ft
Few 25000 ft
Dew Point 34 °F
Humidity 45%
Rainfall 0.00 in
Snow Depth Not available.
UV 0.0 out of 12
Pollen 8.50 out of 12
Air Quality Not available.
Flu Activity Not available.
METAR KPBI 271253Z 31011KT 10SM FEW030 FEW250 11/05 A3003 RMK AO2 SLP168 T01060050

More Conditions Fewer Conditions

Pressure 30.03 in
Visibility 10.0 miles
Clouds Few 3000 ft
Few 25000 ft
Dew Point 34 °F
Humidity 45%
Rainfall 0.00 in
Snow Depth Not available.
UV 0.0 out of 12
Pollen 8.50 out of 12
Air Quality Not available.
Flu Activity Not available.
METAR KPBI 271253Z 31011KT 10SM FEW030 FEW250 11/05 A3003 RMK AO2 SLP168 T01060050

More Conditions Fewer Conditions

10-Day Weather Forecast

Almanac

Astronomy

Jan. 27, 2015 Rise Set
Actual Time
Civil Twilight
Nautical Twilight
Astronomical Twilight
Moon
Length of Visible Light
Length of Day
Tomorrow will be .
, % of the Moon is Illuminated

Today's Extremes

State Highs State Lows

Community

WunderPhotos

Upload Photos

1,790,607 photos uploaded!

WunderBlogs® & News

Nearby

Air Quality

  Air Quality AQ Index Pollutant
Not available.

Snow Depth

Station Depth Elevation

Earthquake Activity

City Distance Mag. Time & Date
Minimum magnitude displayed is 2.5.

Coastal Water Temperatures

Place Temperature

Nearby Weather Stations